Time;durP1;ratioP1;P1;durP2;ratioP2;P2;SDS_P1;SDS_P2;PMS_P1;PMS_P2;Temp;Humidity;BMP_temperature;BMP_pressure;BME280_temperature;BME280_humidity;BME280_pressure;Samples;Min_cycle;Max_cycle;Signal;HPM_P1;HPM_P2
2023/08/06 00:01:11;;;;;;;;;;;;;;;29.03;62.49;100126.00;5116407;27;19923;-86
2023/08/06 00:03:37;;;;;;;;;;;;;;;29.01;62.34;100117.13;5080339;27;19960;-86
2023/08/06 00:06:02;;;;;;;;;;;;;;;29.00;62.32;100118.94;5102756;28;19943;-86
2023/08/06 00:08:28;;;;;;;;;;;;;;;29.00;62.31;100129.69;5110664;27;19976;-86
2023/08/06 00:10:53;;;;;;;;;;;;;;;29.00;62.31;100137.75;5105920;27;19922;-86
2023/08/06 00:13:19;;;;;;;;;;;;;;;29.00;62.45;100131.50;5089012;28;19912;-86
2023/08/06 00:15:44;;;;;;;;;;;;;;;28.99;62.44;100125.22;5120101;27;19953;-86
2023/08/06 00:18:13;;;;;;;;;;;;;;;29.00;62.38;100123.44;5114243;27;19907;-86
2023/08/06 00:20:38;;;;;;;;;;;;;;;29.00;62.55;100127.00;5102432;28;19911;-86
2023/08/06 00:23:04;;;;;;;;;;;;;;;28.98;62.38;100127.97;5105864;28;19918;-86
2023/08/06 00:25:29;;;;;;;;;;;;;;;28.97;62.33;100119.00;5123027;27;19922;-86
2023/08/06 00:27:56;;;;;;;;;;;;;;;28.96;62.41;100130.72;5095160;27;19948;-86
2023/08/06 00:30:24;;;;;;;;;;;;;;;28.96;62.14;100119.97;5102365;28;19916;-86
2023/08/06 00:32:49;;;;;;;;;;;;;;;28.98;62.33;100122.59;5111385;27;19919;-86
2023/08/06 00:35:14;;;;;;;;;;;;;;;28.97;62.33;100131.59;5127417;27;20305;-87
2023/08/06 00:37:40;;;;;;;;;;;;;;;28.96;62.42;100130.72;5123789;27;19922;-86
2023/08/06 00:40:06;;;;;;;;;;;;;;;28.96;62.42;100125.34;5093724;28;20702;-86
2023/08/06 00:42:32;;;;;;;;;;;;;;;28.95;62.34;100126.25;5110614;28;19915;-87
2023/08/06 00:44:57;;;;;;;;;;;;;;;28.96;62.32;100124.47;5102203;28;19964;-86
2023/08/06 00:47:23;;;;;;;;;;;;;;;28.97;62.20;100118.16;5094266;28;19907;-86
2023/08/06 00:49:48;;;;;;;;;;;;;;;28.94;62.33;100120.94;5092607;28;19969;-86
2023/08/06 00:52:14;;;;;;;;;;;;;;;28.95;62.27;100112.81;5094231;28;19912;-86
2023/08/06 00:54:39;;;;;;;;;;;;;;;28.96;62.24;100108.34;5093457;28;19915;-86
2023/08/06 00:57:04;;;;;;;;;;;;;;;28.95;62.36;100103.88;5100617;28;20345;-86
2023/08/06 00:59:30;;;;;;;;;;;;;;;28.95;62.31;100094.00;5101558;28;19907;-86
2023/08/06 01:01:55;;;;;;;;;;;;;;;28.94;62.33;100094.06;5095701;28;19915;-86
2023/08/06 01:04:21;;;;;;;;;;;;;;;28.93;62.34;100090.47;5114317;28;19923;-86
2023/08/06 01:07:09;;;;;;;;;;;;;;;28.96;62.19;100094.91;5113297;28;19931;-86
2023/08/06 01:09:35;;;;;;;;;;;;;;;28.91;62.36;100091.47;5093026;28;19919;-86
2023/08/06 01:12:13;;;;;;;;;;;;;;;28.91;62.54;100088.78;5127530;28;19920;-86
2023/08/06 01:14:52;;;;;;;;;;;;;;;28.90;62.51;100084.34;5131033;28;19911;-86
2023/08/06 01:17:18;;;;;;;;;;;;;;;28.93;62.34;100087.78;5096374;28;19912;-86
2023/08/06 01:19:43;;;;;;;;;;;;;;;28.93;62.28;100089.59;5112357;28;19908;-86
2023/08/06 01:22:08;;;;;;;;;;;;;;;28.90;62.35;100085.22;5079495;28;20027;-86
2023/08/06 01:24:34;;;;;;;;;;;;;;;28.89;62.35;100091.50;5106201;28;20277;-86
2023/08/06 01:27:26;;;;;;;;;;;;;;;28.93;62.24;100074.34;5122799;28;20396;-86
2023/08/06 01:29:57;;;;;;;;;;;;;;;28.90;62.30;100073.59;5080386;28;19911;-86
2023/08/06 01:35:07;;;;;;;;;;;;;;;28.89;62.04;100064.63;5099743;28;20429;-86
2023/08/06 01:37:32;;;;;;;;;;;;;;;28.87;62.36;100068.31;5096484;28;19911;-86
2023/08/06 01:39:57;;;;;;;;;;;;;;;28.86;62.28;100058.50;5097098;28;19922;-87
2023/08/06 01:42:23;;;;;;;;;;;;;;;28.87;62.32;100061.16;5098332;27;19996;-86
2023/08/06 01:44:48;;;;;;;;;;;;;;;28.87;62.09;100052.19;5126771;27;19994;-86
2023/08/06 01:47:14;;;;;;;;;;;;;;;28.87;62.22;100052.19;5101853;27;20431;-86
2023/08/06 01:49:39;;;;;;;;;;;;;;;28.86;62.28;100051.31;5134537;27;19911;-86
2023/08/06 01:52:05;;;;;;;;;;;;;;;28.86;62.12;100047.75;5098763;28;20424;-86
2023/08/06 01:54:30;;;;;;;;;;;;;;;28.84;62.22;100047.78;5103668;28;19919;-86
2023/08/06 01:56:58;;;;;;;;;;;;;;;28.85;62.44;100035.22;5114864;28;19912;-85
2023/08/06 01:59:23;;;;;;;;;;;;;;;28.84;62.41;100037.03;5097153;28;19914;-85
2023/08/06 02:01:49;;;;;;;;;;;;;;;28.84;62.35;100031.66;5108792;27;19915;-86
2023/08/06 02:04:14;;;;;;;;;;;;;;;28.82;62.05;100029.00;5079948;28;19980;-85
2023/08/06 02:06:39;;;;;;;;;;;;;;;28.81;62.46;100027.28;5096440;28;19998;-86
2023/08/06 02:09:05;;;;;;;;;;;;;;;28.81;62.27;100021.03;5114053;27;19976;-86
2023/08/06 02:11:30;;;;;;;;;;;;;;;28.78;62.34;100005.88;5103910;27;19930;-85
2023/08/06 02:13:56;;;;;;;;;;;;;;;28.81;62.32;100012.97;5127546;27;19962;-86
2023/08/06 02:16:21;;;;;;;;;;;;;;;28.78;62.45;100008.53;5096367;28;20002;-85
2023/08/06 02:18:47;;;;;;;;;;;;;;;28.79;62.47;99996.88;5113281;27;19915;-86
2023/08/06 02:21:12;;;;;;;;;;;;;;;28.78;62.25;100000.50;5095849;28;19912;-86
2023/08/06 02:23:37;;;;;;;;;;;;;;;28.77;62.35;100001.44;5098364;27;19965;-85
2023/08/06 02:26:04;;;;;;;;;;;;;;;28.78;62.37;100011.25;5118699;27;20328;-85
2023/08/06 02:28:29;;;;;;;;;;;;;;;28.78;62.32;100013.91;5099052;28;20372;-86
2023/08/06 02:30:55;;;;;;;;;;;;;;;28.75;62.46;100016.72;5114226;28;19923;-86
2023/08/06 02:33:21;;;;;;;;;;;;;;;28.75;62.44;100016.72;5096365;27;19919;-85
2023/08/06 02:35:47;;;;;;;;;;;;;;;28.73;62.53;100013.22;5111637;27;19915;-85
2023/08/06 02:38:12;;;;;;;;;;;;;;;28.76;62.30;100021.16;5098552;28;19918;-86
2023/08/06 02:40:47;;;;;;;;;;;;;;;28.75;62.53;100011.34;5099040;27;19964;-86
2023/08/06 02:43:12;;;;;;;;;;;;;;;28.75;62.18;100018.53;5110624;27;20014;-86
2023/08/06 02:45:38;;;;;;;;;;;;;;;28.74;62.37;100011.41;5099109;27;20398;-86
2023/08/06 02:48:03;;;;;;;;;;;;;;;28.71;62.65;100014.19;5122822;27;19913;-85
2023/08/06 02:50:48;;;;;;;;;;;;;;;28.73;62.54;100013.22;5134207;27;19973;-84
2023/08/06 02:53:14;;;;;;;;;;;;;;;28.74;62.26;100022.13;5119772;28;19927;-85
2023/08/06 02:55:45;;;;;;;;;;;;;;;28.73;62.42;100025.78;5109998;28;19920;-86
2023/08/06 02:58:14;;;;;;;;;;;;;;;28.74;62.31;100024.84;5125426;28;19916;-86
2023/08/06 03:00:39;;;;;;;;;;;;;;;28.74;62.33;100032.88;5111231;28;19915;-86
2023/08/06 03:03:18;;;;;;;;;;;;;;;28.70;62.43;100037.50;5128164;28;20304;-86
2023/08/06 03:09:05;;;;;;;;;;;;;;;28.67;62.50;100037.59;5094480;28;19974;-86
2023/08/06 03:11:37;;;;;;;;;;;;;;;28.70;62.34;100040.19;5076130;28;19917;-85
2023/08/06 03:14:06;;;;;;;;;;;;;;;28.68;62.41;100039.38;5079986;28;19923;-85
2023/08/06 03:16:33;;;;;;;;;;;;;;;28.68;62.39;100035.78;5065442;28;19950;-86
2023/08/06 03:19:02;;;;;;;;;;;;;;;28.67;62.18;100032.22;5051760;28;19924;-86
2023/08/06 03:21:28;;;;;;;;;;;;;;;28.66;62.39;100017.03;5082470;28;20409;-86
2023/08/06 03:23:53;;;;;;;;;;;;;;;28.68;62.44;100019.66;5097207;28;19958;-87
2023/08/06 03:26:19;;;;;;;;;;;;;;;28.67;62.14;100031.34;5089512;28;19955;-86
2023/08/06 03:28:44;;;;;;;;;;;;;;;28.65;62.32;100031.38;5090007;28;19916;-86
2023/08/06 03:31:10;;;;;;;;;;;;;;;28.66;62.52;100025.09;5087949;28;19928;-85
2023/08/06 03:33:35;;;;;;;;;;;;;;;28.68;62.37;100038.47;5117065;28;19920;-87
2023/08/06 03:36:01;;;;;;;;;;;;;;;28.67;62.33;100024.16;5125960;27;20403;-87
2023/08/06 03:38:27;;;;;;;;;;;;;;;28.65;62.39;100022.47;5121028;28;20332;-85
2023/08/06 03:40:53;;;;;;;;;;;;;;;28.60;62.47;100033.34;5116239;27;19927;-85
2023/08/06 03:43:18;;;;;;;;;;;;;;;28.61;62.25;100035.09;5124178;27;19923;-85
2023/08/06 03:45:45;;;;;;;;;;;;;;;28.65;62.26;100031.38;5124337;27;20347;-85
2023/08/06 03:48:11;;;;;;;;;;;;;;;28.65;62.20;100023.31;5107376;28;19939;-85
2023/08/06 03:50:36;;;;;;;;;;;;;;;28.65;62.32;100025.13;5106493;28;20396;-86
2023/08/06 03:53:02;;;;;;;;;;;;;;;28.65;62.31;100028.69;5107334;28;20312;-84
2023/08/06 03:55:27;;;;;;;;;;;;;;;28.63;62.16;100018.00;5110214;27;19955;-84
2023/08/06 03:57:53;;;;;;;;;;;;;;;28.65;62.13;100022.47;5115907;27;19920;-84
2023/08/06 04:00:18;;;;;;;;;;;;;;;28.65;62.10;100020.63;5104611;28;19973;-84
2023/08/06 04:02:44;;;;;;;;;;;;;;;28.64;62.14;100021.59;5094624;28;19920;-84
2023/08/06 04:05:09;;;;;;;;;;;;;;;28.64;62.37;100013.53;5096126;28;19921;-84
2023/08/06 04:07:35;;;;;;;;;;;;;;;28.63;62.09;100006.38;5110287;28;19923;-85
2023/08/06 04:10:01;;;;;;;;;;;;;;;28.63;62.13;100009.94;5099378;28;20018;-84
2023/08/06 04:12:27;;;;;;;;;;;;;;;28.63;61.98;100001.88;5112093;28;19927;-84
2023/08/06 04:14:54;;;;;;;;;;;;;;;28.61;62.26;100003.72;5099858;28;19982;-86
2023/08/06 04:17:23;;;;;;;;;;;;;;;28.62;62.32;100010.88;5111058;28;19927;-85
2023/08/06 04:19:50;;;;;;;;;;;;;;;28.61;62.02;100000.19;5112618;27;19916;-83
2023/08/06 04:22:16;;;;;;;;;;;;;;;28.60;61.95;99993.94;5113789;28;19915;-84
2023/08/06 04:24:44;;;;;;;;;;;;;;;28.61;61.97;99989.44;5095104;28;20411;-87
2023/08/06 04:30:18;;;;;;;;;;;;;;;28.58;62.02;99993.09;5103788;28;20343;-84
2023/08/06 04:32:44;;;;;;;;;;;;;;;28.58;62.21;99993.09;5094845;28;20490;-85
2023/08/06 04:35:44;;;;;;;;;;;;;;;28.58;62.20;99984.19;5109309;28;19962;-85
2023/08/06 04:38:09;;;;;;;;;;;;;;;28.59;61.92;99985.91;5106887;28;19922;-85
2023/08/06 04:40:37;;;;;;;;;;;;;;;28.59;62.21;99996.66;5123535;27;20008;-85
2023/08/06 04:43:03;;;;;;;;;;;;;;;28.57;62.06;99988.63;5093127;28;19965;-85
2023/08/06 04:45:28;;;;;;;;;;;;;;;28.57;62.30;99983.28;5114547;27;19924;-85
2023/08/06 04:47:54;;;;;;;;;;;;;;;28.57;62.22;99977.03;5091649;27;20318;-86
2023/08/06 04:50:22;;;;;;;;;;;;;;;28.55;62.16;99978.88;5102283;28;19922;-86
2023/08/06 04:52:57;;;;;;;;;;;;;;;28.53;62.32;99978.97;5113879;28;19935;-86
2023/08/06 04:55:22;;;;;;;;;;;;;;;28.57;62.18;99968.97;5110730;28;19927;-86
2023/08/06 04:57:48;;;;;;;;;;;;;;;28.55;62.35;99966.31;5104427;28;20372;-86
2023/08/06 05:00:13;;;;;;;;;;;;;;;28.57;62.07;99960.91;5106196;28;20304;-86
2023/08/06 05:02:40;;;;;;;;;;;;;;;28.55;61.93;99962.75;5104052;27;20357;-87
2023/08/06 05:05:05;;;;;;;;;;;;;;;28.55;62.31;99960.09;5097998;27;19920;-86
2023/08/06 05:07:33;;;;;;;;;;;;;;;28.57;62.36;99952.84;5119465;27;20309;-85
2023/08/06 05:09:58;;;;;;;;;;;;;;;28.56;62.37;99957.34;5100023;27;19980;-85
2023/08/06 05:12:25;;;;;;;;;;;;;;;28.53;62.28;99952.09;5102625;28;20306;-89
2023/08/06 05:14:50;;;;;;;;;;;;;;;28.54;62.24;99953.84;5093151;28;19947;-87
2023/08/06 05:17:16;;;;;;;;;;;;;;;28.52;62.26;99961.06;5100856;28;20290;-88
2023/08/06 05:19:41;;;;;;;;;;;;;;;28.54;62.37;99947.59;5103732;28;19920;-87
2023/08/06 05:22:07;;;;;;;;;;;;;;;28.54;62.42;99937.72;5102220;28;19919;-85
2023/08/06 05:24:35;;;;;;;;;;;;;;;28.54;62.47;99939.53;5104153;28;19920;-87
2023/08/06 05:27:00;;;;;;;;;;;;;;;28.55;62.20;99949.34;5117665;27;20046;-88
2023/08/06 05:29:28;;;;;;;;;;;;;;;28.54;62.41;99944.91;5103414;28;19934;-89
2023/08/06 05:31:55;;;;;;;;;;;;;;;28.53;62.49;99944.03;5090572;28;19970;-87
2023/08/06 05:34:20;;;;;;;;;;;;;;;28.54;62.40;99944.91;5086335;27;20038;-86
2023/08/06 05:36:46;;;;;;;;;;;;;;;28.53;62.44;99948.50;5111498;27;20440;-87
2023/08/06 05:39:23;;;;;;;;;;;;;;;28.53;62.47;99948.50;5090719;28;19953;-88
2023/08/06 05:42:00;;;;;;;;;;;;;;;28.52;62.59;99942.25;5110699;27;20304;-86
2023/08/06 05:44:25;;;;;;;;;;;;;;;28.52;62.40;99947.63;5108432;28;19926;-87
2023/08/06 05:50:37;;;;;;;;;;;;;;;28.52;62.50;99936.91;5088147;28;19973;-86
2023/08/06 05:54:09;;;;;;;;;;;;;;;28.52;62.26;99944.94;5080585;28;19947;-88
2023/08/06 05:57:15;;;;;;;;;;;;;;;28.52;62.40;99933.34;5007228;28;19929;-86
2023/08/06 06:00:00;;;;;;;;;;;;;;;28.50;62.26;99936.06;5002037;28;19922;-90
2023/08/06 06:02:26;;;;;;;;;;;;;;;28.49;62.45;99928.03;5037903;28;19921;-87
2023/08/06 06:04:54;;;;;;;;;;;;;;;28.52;62.27;99925.28;5045837;28;19921;-91
2023/08/06 06:07:20;;;;;;;;;;;;;;;28.50;62.11;99932.50;5033376;28;20012;-89
2023/08/06 06:09:45;;;;;;;;;;;;;;;28.51;62.16;99931.56;5043576;28;19921;-89
2023/08/06 06:12:17;;;;;;;;;;;;;;;28.51;62.29;99940.53;5024536;28;19928;-90
2023/08/06 06:15:11;;;;;;;;;;;;;;;28.51;62.17;99940.53;5046795;28;19920;-92
2023/08/06 06:18:12;;;;;;;;;;;;;;;28.50;62.22;99945.94;5048121;28;19917;-89
2023/08/06 06:20:45;;;;;;;;;;;;;;;28.51;62.11;99945.91;5030292;28;20707;-89
2023/08/06 06:23:45;;;;;;;;;;;;;;;28.50;62.16;99940.56;5046367;28;19959;-90
2023/08/06 06:29:43;;;;;;;;;;;;;;;28.52;62.14;99944.09;5089067;28;19927;-91
2023/08/06 06:32:58;;;;;;;;;;;;;;;28.50;62.16;99946.81;5098233;28;19921;-88
2023/08/06 06:44:49;;;;;;;;;;;;;;;28.54;62.21;99936.84;5090741;28;20396;-90
2023/08/06 06:47:25;;;;;;;;;;;;;;;28.52;62.12;99946.75;5087863;28;19924;-89
2023/08/06 06:49:52;;;;;;;;;;;;;;;28.51;62.28;99947.69;5095577;28;19980;-90
2023/08/06 06:52:24;;;;;;;;;;;;;;;28.50;62.18;99945.94;5070230;28;19962;-88
2023/08/06 06:55:35;;;;;;;;;;;;;;;;;;;;;
2023/08/06 06:58:21;;;;;;;;;;;;;;;28.49;62.48;99937.00;5061895;28;20014;-91
2023/08/06 07:03:58;;;;;;;;;;;;;;;28.49;62.57;99950.44;5089299;28;19924;-90
2023/08/06 07:06:44;;;;;;;;;;;;;;;28.52;62.17;99954.81;5061732;28;19924;-90
2023/08/06 07:09:46;;;;;;;;;;;;;;;;;;;;;
2023/08/06 07:12:43;;;;;;;;;;;;;;;28.49;62.11;99958.50;5080078;28;20461;-92
2023/08/06 07:15:30;;;;;;;;;;;;;;;28.50;62.32;99962.06;5066943;28;19916;-91
2023/08/06 07:21:11;;;;;;;;;;;;;;;28.53;62.10;99965.53;5069793;28;19950;-89
2023/08/06 07:23:37;;;;;;;;;;;;;;;28.52;62.12;99966.44;5056806;28;19962;-92
2023/08/06 07:26:03;;;;;;;;;;;;;;;28.52;62.57;99962.88;5081689;28;19916;-90
2023/08/06 07:28:30;;;;;;;;;;;;;;;28.51;62.16;99962.00;5071787;28;20003;-91
2023/08/06 07:30:57;;;;;;;;;;;;;;;28.51;62.75;99972.75;5058492;28;20030;-92
2023/08/06 07:33:30;;;;;;;;;;;;;;;28.50;62.29;99965.59;5059975;28;19981;-92
2023/08/06 07:35:56;;;;;;;;;;;;;;;28.52;61.52;99965.56;5062915;28;19916;-94
2023/08/06 07:38:21;;;;;;;;;;;;;;;28.49;62.02;99961.19;5104640;27;19923;-90
2023/08/06 07:40:55;;;;;;;;;;;;;;;28.52;61.82;99955.69;5111265;28;19919;-90
2023/08/06 07:43:22;;;;;;;;;;;;;;;28.53;62.51;99965.53;5107775;27;19980;-92
2023/08/06 07:45:50;;;;;;;;;;;;;;;28.55;62.41;99974.38;5099489;28;19923;-90
2023/08/06 07:48:25;;;;;;;;;;;;;;;28.56;62.84;99983.34;5100973;27;20442;-93
2023/08/06 07:50:54;;;;;;;;;;;;;;;28.55;62.53;99978.88;5102693;28;19920;-91
2023/08/06 07:53:20;;;;;;;;;;;;;;;28.54;62.70;99979.81;5099642;28;19923;-91
2023/08/06 07:56:02;;;;;;;;;;;;;;;28.55;62.77;99974.38;5093477;27;20013;-91
2023/08/06 07:58:36;;;;;;;;;;;;;;;28.58;62.62;99976.13;5107240;27;19927;-92
2023/08/06 08:01:05;;;;;;;;;;;;;;;28.58;62.62;99973.44;5103853;27;19923;-91
2023/08/06 08:03:50;;;;;;;;;;;;;;;28.57;62.04;99972.53;5120654;27;19920;-93
2023/08/06 08:06:17;;;;;;;;;;;;;;;28.61;62.11;99957.19;5114626;27;19916;-91
2023/08/06 08:08:47;;;;;;;;;;;;;;;28.61;61.84;99958.06;5101880;28;19987;-92
2023/08/06 08:11:14;;;;;;;;;;;;;;;28.65;61.70;99958.84;5093607;28;20369;-91
2023/08/06 08:13:46;;;;;;;;;;;;;;;28.63;61.92;99961.56;5102540;28;19912;-91
2023/08/06 08:16:13;;;;;;;;;;;;;;;28.65;61.85;99960.66;5099886;27;20017;-92
2023/08/06 08:18:57;;;;;;;;;;;;;;;28.63;61.77;99953.53;5097455;28;19912;-91
2023/08/06 08:21:24;;;;;;;;;;;;;;;28.64;61.85;99954.41;5100965;28;19919;-92
2023/08/06 08:24:06;;;;;;;;;;;;;;;28.65;61.97;99950.78;5105993;28;20006;-93
2023/08/06 08:26:40;;;;;;;;;;;;;;;28.65;62.01;99949.91;5112476;28;19923;-92
2023/08/06 08:29:09;;;;;;;;;;;;;;;28.66;61.97;99947.19;5107654;28;19947;-92
2023/08/06 08:31:45;;;;;;;;;;;;;;;28.66;62.18;99944.50;5094660;28;19912;-92
2023/08/06 08:34:16;;;;;;;;;;;;;;;28.63;62.62;99942.78;5117819;27;19934;-91
2023/08/06 08:36:47;;;;;;;;;;;;;;;28.60;62.28;99945.56;5104834;28;19916;-92
2023/08/06 08:39:14;;;;;;;;;;;;;;;28.60;63.25;99944.72;5107428;28;19912;-91
2023/08/06 08:41:58;;;;;;;;;;;;;;;28.62;63.24;99949.09;5117822;28;19966;-93
2023/08/06 08:44:39;;;;;;;;;;;;;;;28.66;62.80;99940.91;5106222;28;19913;-93
2023/08/06 08:47:10;;;;;;;;;;;;;;;28.69;62.32;99951.56;5109514;28;19916;-91
2023/08/06 08:49:35;;;;;;;;;;;;;;;28.69;62.63;99948.88;5106351;28;19927;-91
2023/08/06 08:52:01;;;;;;;;;;;;;;;28.70;62.39;99951.53;5097080;28;19916;-90
2023/08/06 08:54:29;;;;;;;;;;;;;;;28.70;61.87;99950.63;5112987;28;20125;-92
2023/08/06 08:56:56;;;;;;;;;;;;;;;28.69;62.49;99936.31;5105301;28;19920;-91
2023/08/06 08:59:38;;;;;;;;;;;;;;;28.70;62.66;99938.09;5104512;28;19941;-91
2023/08/06 09:02:04;;;;;;;;;;;;;;;28.71;62.16;99930.91;5110974;28;19947;-90
2023/08/06 09:04:32;;;;;;;;;;;;;;;28.70;62.05;99935.41;5106805;28;19919;-92
2023/08/06 09:07:03;;;;;;;;;;;;;;;28.73;62.43;99921.00;5098393;28;19916;-91
2023/08/06 09:09:31;;;;;;;;;;;;;;;28.71;62.79;99923.72;5120575;27;19962;-91
2023/08/06 09:12:02;;;;;;;;;;;;;;;28.72;62.50;99925.47;5097689;28;19920;-89
2023/08/06 09:14:27;;;;;;;;;;;;;;;28.74;62.20;99920.03;5111012;28;19947;-91
2023/08/06 09:16:54;;;;;;;;;;;;;;;28.73;62.75;99915.63;5094598;28;19968;-91
2023/08/06 09:19:20;;;;;;;;;;;;;;;28.74;62.74;99909.28;5088869;28;20022;-90
2023/08/06 09:21:48;;;;;;;;;;;;;;;28.74;62.75;99910.16;5120349;27;20412;-90
2023/08/06 09:24:14;;;;;;;;;;;;;;;28.74;62.25;99902.09;5094212;28;19916;-89
2023/08/06 09:26:41;;;;;;;;;;;;;;;28.74;62.93;99903.91;5103663;28;19938;-90
2023/08/06 09:29:11;;;;;;;;;;;;;;;28.73;62.57;99897.69;5092834;28;19920;-91
2023/08/06 09:31:40;;;;;;;;;;;;;;;28.75;62.59;99890.44;5111363;27;20392;-90
2023/08/06 09:34:32;;;;;;;;;;;;;;;28.75;62.56;99879.69;5102386;28;19919;-91
2023/08/06 09:40:30;;;;;;;;;;;;;;;28.76;62.96;99875.19;5109922;28;20307;-90
2023/08/06 09:42:56;;;;;;;;;;;;;;;28.76;63.26;99883.25;5092570;27;20392;-90
2023/08/06 09:49:03;;;;;;;;;;;;;;;28.78;62.46;99871.50;5107070;28;19937;-90
2023/08/06 09:51:50;;;;;;;;;;;;;;;28.77;62.64;99856.34;5073564;28;20031;-92
2023/08/06 09:54:58;;;;;;;;;;;;;;;28.75;62.99;99852.81;5076644;28;19922;-91
2023/08/06 10:03:30;;;;;;;;;;;;;;;28.79;62.97;99854.47;5071732;28;20441;-89
2023/08/06 10:12:04;;;;;;;;;;;;;;;28.82;62.77;99834.66;5078704;28;19939;-91
2023/08/06 10:15:00;;;;;;;;;;;;;;;28.81;62.65;99831.09;5074608;28;19920;-90
2023/08/06 10:17:29;;;;;;;;;;;;;;;28.81;63.36;99841.84;5082607;28;19912;-92
2023/08/06 10:23:20;;;;;;;;;;;;;;;28.84;63.07;99856.97;5066750;28;19923;-89
2023/08/06 10:26:17;;;;;;;;;;;;;;;28.85;62.87;99856.06;5053382;28;19919;-88
2023/08/06 10:35:13;;;;;;;;;;;;;;;28.81;64.63;99852.59;5010126;28;20425;-89
2023/08/06 10:41:19;;;;;;;;;;;;;;;28.86;64.10;99849.75;4971918;28;19958;-91
2023/08/06 10:47:30;;;;;;;;;;;;;;;28.93;64.23;99836.97;4958346;28;19926;-85
2023/08/06 10:50:17;;;;;;;;;;;;;;;29.09;64.51;99827.41;4948696;28;19932;-86
2023/08/06 10:52:44;;;;;;;;;;;;;;;29.17;63.38;99821.78;4965953;28;20004;-86
2023/08/06 10:55:09;;;;;;;;;;;;;;;29.19;61.82;99810.03;5032341;28;20387;-88
2023/08/06 10:57:35;;;;;;;;;;;;;;;29.22;60.51;99787.50;5030664;28;20450;-89
2023/08/06 11:00:04;;;;;;;;;;;;;;;29.34;59.14;99781.66;5038872;28;20020;-87
2023/08/06 11:02:32;;;;;;;;;;;;;;;29.42;58.13;99781.34;5047145;28;20030;-88
2023/08/06 11:04:57;;;;;;;;;;;;;;;29.46;57.44;99782.09;5032131;28;20415;-87
2023/08/06 11:07:23;;;;;;;;;;;;;;;29.53;56.49;99787.19;5048503;28;19920;-89
2023/08/06 11:09:50;;;;;;;;;;;;;;;29.60;56.03;99788.69;5095704;27;19915;-86
2023/08/06 11:12:21;;;;;;;;;;;;;;;29.63;55.84;99790.38;5108004;27;19912;-88
2023/08/06 11:14:50;;;;;;;;;;;;;;;29.75;55.09;99795.28;5093433;28;19974;-88
2023/08/06 11:17:15;;;;;;;;;;;;;;;29.79;54.79;99845.38;5092196;27;19915;-89
2023/08/06 11:19:42;;;;;;;;;;;;;;;29.86;54.57;99937.50;5094561;28;19923;-89
2023/08/06 11:22:07;;;;;;;;;;;;;;;29.86;54.56;99955.47;5117656;27;19916;-88
2023/08/06 11:24:40;;;;;;;;;;;;;;;29.89;54.13;99968.78;5099277;28;19934;-88
2023/08/06 11:27:13;;;;;;;;;;;;;;;29.88;54.12;99958.97;5113586;27;19911;-88
2023/08/06 11:29:40;;;;;;;;;;;;;;;29.88;53.63;99943.69;5094849;28;19970;-88
2023/08/06 11:32:06;;;;;;;;;;;;;;;29.88;53.54;99953.59;5097239;27;20049;-87
2023/08/06 11:34:31;;;;;;;;;;;;;;;29.94;53.46;99970.38;5093396;28;20007;-88
2023/08/06 11:36:57;;;;;;;;;;;;;;;29.94;53.07;99967.69;5091435;28;19939;-89
2023/08/06 11:39:22;;;;;;;;;;;;;;;29.96;53.02;99973.91;5096152;28;20064;-89
2023/08/06 11:41:52;;;;;;;;;;;;;;;29.98;52.97;99947.78;5097716;28;20369;-92
2023/08/06 11:44:27;;;;;;;;;;;;;;;29.94;53.01;99947.97;5096470;28;19919;-92
2023/08/06 11:46:55;;;;;;;;;;;;;;;29.96;53.07;99940.72;5100307;27;19923;-94
2023/08/06 11:49:46;;;;;;;;;;;;;;;29.97;52.80;99929.91;5088483;28;19928;-92
2023/08/06 11:52:19;;;;;;;;;;;;;;;30.00;52.62;99919.00;5106607;27;19920;-92
2023/08/06 12:00:50;;;;;;;;;;;;;;;30.05;51.91;99945.72;5108131;28;20183;-92
2023/08/06 12:03:27;;;;;;;;;;;;;;;30.09;51.80;99923.13;5093948;28;20408;-91
2023/08/06 12:05:54;;;;;;;;;;;;;;;30.08;51.80;99893.56;5087639;28;19916;-91
2023/08/06 12:08:19;;;;;;;;;;;;;;;30.06;51.65;99887.38;5086393;28;20309;-91
2023/08/06 12:10:46;;;;;;;;;;;;;;;30.08;51.57;99872.03;5085712;28;19920;-91
2023/08/06 12:13:12;;;;;;;;;;;;;;;30.11;51.32;99859.31;5086348;28;19915;-91
2023/08/06 12:15:38;;;;;;;;;;;;;;;30.10;51.39;99868.34;5105597;27;19923;-89
2023/08/06 12:18:06;;;;;;;;;;;;;;;30.16;51.10;99877.97;5094988;28;19961;-90
2023/08/06 12:20:31;;;;;;;;;;;;;;;30.14;51.23;99888.84;5084539;28;19916;-86
2023/08/06 12:22:57;;;;;;;;;;;;;;;30.20;50.87;99902.03;5072221;28;20494;-89
2023/08/06 12:25:24;;;;;;;;;;;;;;;30.26;50.82;99908.97;5098479;28;19965;-88
2023/08/06 12:27:54;;;;;;;;;;;;;;;30.21;50.79;99905.63;5097947;28;19922;-91
2023/08/06 12:30:20;;;;;;;;;;;;;;;30.20;50.73;99890.38;5086569;28;19948;-90
2023/08/06 12:32:46;;;;;;;;;;;;;;;30.22;50.44;99886.66;5081384;28;20632;-88
2023/08/06 12:35:12;;;;;;;;;;;;;;;30.25;50.28;99896.47;5087037;28;20462;-87
2023/08/06 12:37:39;;;;;;;;;;;;;;;30.26;50.47;99892.81;5095190;27;20606;-90
2023/08/06 12:40:07;;;;;;;;;;;;;;;30.28;50.31;99892.75;5087493;28;19924;-88
2023/08/06 12:42:35;;;;;;;;;;;;;;;30.32;50.20;99906.06;5071919;28;19967;-88
2023/08/06 12:45:02;;;;;;;;;;;;;;;30.28;50.20;99907.09;5075411;28;19938;-89
2023/08/06 12:47:28;;;;;;;;;;;;;;;30.26;50.15;99914.38;5095840;28;20010;-87
2023/08/06 12:49:53;;;;;;;;;;;;;;;30.35;50.01;99907.75;5100436;28;20386;-87
2023/08/06 12:52:19;;;;;;;;;;;;;;;30.30;49.94;99918.72;5099513;27;19920;-89
2023/08/06 12:54:46;;;;;;;;;;;;;;;30.39;49.78;99906.69;5077443;28;19924;-86
2023/08/06 12:57:20;;;;;;;;;;;;;;;30.38;49.66;99907.66;5100835;27;19920;-87
2023/08/06 12:59:48;;;;;;;;;;;;;;;30.43;49.37;99911.88;5088185;28;19916;-88
2023/08/06 13:02:14;;;;;;;;;;;;;;;30.42;49.44;99902.06;5076462;27;19923;-89
2023/08/06 13:04:40;;;;;;;;;;;;;;;30.37;49.47;99895.97;5083422;28;20381;-87
2023/08/06 13:07:06;;;;;;;;;;;;;;;30.34;49.52;99888.03;5071412;27;19916;-89
2023/08/06 13:09:32;;;;;;;;;;;;;;;30.53;49.26;99887.25;5080973;28;19966;-89
2023/08/06 13:11:59;;;;;;;;;;;;;;;30.45;49.27;99890.28;5105948;28;19916;-87
2023/08/06 13:14:25;;;;;;;;;;;;;;;30.45;48.95;99892.97;5067201;28;19947;-89
2023/08/06 13:16:50;;;;;;;;;;;;;;;30.40;49.29;99895.84;5096248;27;19955;-90
2023/08/06 13:19:16;;;;;;;;;;;;;;;30.40;49.07;99890.47;5076837;27;19922;-86
2023/08/06 13:21:41;;;;;;;;;;;;;;;30.40;49.29;99889.59;5104866;28;19949;-89
2023/08/06 13:24:07;;;;;;;;;;;;;;;30.44;48.86;99892.09;5102763;27;20616;-88
2023/08/06 13:26:32;;;;;;;;;;;;;;;30.48;48.88;99884.75;5086116;28;20551;-87
2023/08/06 13:28:58;;;;;;;;;;;;;;;30.43;48.85;99884.06;5103705;27;20011;-87
2023/08/06 13:31:23;;;;;;;;;;;;;;;30.42;48.73;99875.13;5099629;27;19915;-88
2023/08/06 13:33:49;;;;;;;;;;;;;;;30.49;48.67;99870.34;5081767;28;19916;-87
2023/08/06 13:36:15;;;;;;;;;;;;;;;30.44;48.55;99862.47;5095474;27;19922;-88
2023/08/06 13:38:42;;;;;;;;;;;;;;;30.48;48.55;99863.22;5095187;27;19924;-90
2023/08/06 13:41:11;;;;;;;;;;;;;;;30.56;48.18;99866.44;5071343;27;19923;-83
2023/08/06 13:43:37;;;;;;;;;;;;;;;30.53;48.30;99863.88;5091284;28;19941;-89
2023/08/06 13:46:04;;;;;;;;;;;;;;;30.60;48.23;99859.09;5082120;28;19915;-92
2023/08/06 13:48:36;;;;;;;;;;;;;;;30.64;48.03;99869.66;5085579;28;19916;-91
2023/08/06 13:51:01;;;;;;;;;;;;;;;30.56;48.12;99876.34;5091622;28;19919;-90
2023/08/06 13:53:29;;;;;;;;;;;;;;;30.64;47.76;99864.28;5082299;27;19926;-90
2023/08/06 13:55:57;;;;;;;;;;;;;;;30.58;47.73;99860.97;5091661;28;19915;-89
2023/08/06 13:59:05;;;;;;;;;;;;;;;30.53;47.98;99863.88;5078816;28;19931;-91
2023/08/06 14:01:53;;;;;;;;;;;;;;;30.64;47.69;99863.41;5032525;28;19917;-93
2023/08/06 14:04:21;;;;;;;;;;;;;;;30.57;47.68;99860.09;5017515;28;19922;-96
2023/08/06 14:06:48;;;;;;;;;;;;;;;30.71;47.55;99866.72;5076250;28;20330;-94
2023/08/06 14:12:24;;;;;;;;;;;;;;;30.63;47.56;99870.63;5122761;27;19923;-94
2023/08/06 14:15:05;;;;;;;;;;;;;;;30.31;47.55;99839.69;5094224;28;19992;-94
2023/08/06 14:18:00;;;;;;;;;;;;;;;30.60;47.45;99877.97;5089522;28;19916;-95